Time;durP1;ratioP1;P1;durP2;ratioP2;P2;SDS_P1;SDS_P2;PMS_P1;PMS_P2;Temp;Humidity;BMP_temperature;BMP_pressure;BME280_temperature;BME280_humidity;BME280_pressure;Samples;Min_cycle;Max_cycle;Signal;HPM_P1;HPM_P2
2023/06/05 00:01:37;;;;;;;0.90;0.70;;;;;;;15.55;100.00;98004.19;1690546;75;1751077;-70
2023/06/05 00:04:08;;;;;;;0.95;0.90;;;;;;;15.46;100.00;97996.16;1699578;75;1785786;-69
2023/06/05 00:06:39;;;;;;;1.30;1.10;;;;;;;15.41;100.00;97996.91;1703325;75;748550;-70
2023/06/05 00:09:12;;;;;;;2.00;1.40;;;;;;;15.31;100.00;97990.88;1712623;75;675631;-69
2023/06/05 00:11:42;;;;;;;1.60;1.30;;;;;;;15.40;100.00;97997.41;1700525;75;971085;-69
2023/06/05 00:14:15;;;;;;;0.95;0.90;;;;;;;15.41;100.00;97991.38;1641513;75;6664865;-71
2023/06/05 00:16:46;;;;;;;1.75;1.40;;;;;;;15.24;100.00;97993.38;1702705;75;768260;-70
2023/06/05 00:19:16;;;;;;;2.10;1.40;;;;;;;15.21;100.00;97994.38;1712075;75;687711;-69
2023/06/05 00:21:46;;;;;;;2.90;1.80;;;;;;;15.10;100.00;98000.63;1702030;75;837532;-69
2023/06/05 00:24:16;;;;;;;1.20;1.10;;;;;;;15.30;100.00;97996.91;1712241;75;675931;-69
2023/06/05 00:26:46;;;;;;;1.20;1.00;;;;;;;15.45;100.00;97982.88;1702653;75;754827;-69
2023/06/05 00:29:19;;;;;;;1.00;0.90;;;;;;;15.46;100.00;97981.59;1711688;75;736127;-69
2023/06/05 00:31:49;;;;;;;1.10;1.00;;;;;;;15.36;100.00;97985.88;1703298;75;745902;-75
2023/06/05 00:34:20;;;;;;;1.40;1.10;;;;;;;15.39;100.00;97976.59;1710809;75;836416;-68
2023/06/05 00:36:53;;;;;;;1.50;1.30;;;;;;;15.23;100.00;97984.34;1702893;75;748982;-71
2023/06/05 00:39:23;;;;;;;1.20;1.00;;;;;;;15.42;100.00;97983.88;1675018;75;3800912;-69
2023/06/05 00:41:53;;;;;;;2.85;1.60;;;;;;;15.24;100.00;97985.84;1703653;75;758746;-71
2023/06/05 00:44:26;;;;;;;1.70;1.60;;;;;;;15.21;100.00;97986.09;1712012;75;736645;-69
2023/06/05 00:46:57;;;;;;;2.35;1.50;;;;;;;15.31;100.00;97985.34;1703155;75;743796;-69
2023/06/05 00:49:27;;;;;;;2.30;1.90;;;;;;;15.10;100.00;97984.06;1711353;75;762783;-68
2023/06/05 00:51:57;;;;;;;1.60;1.30;;;;;;;15.21;100.00;97975.81;1701238;75;932537;-70
2023/06/05 00:54:29;;;;;;;1.70;1.60;;;;;;;15.30;100.00;97977.59;1711944;75;712808;-69
2023/06/05 00:57:00;;;;;;;1.35;1.25;;;;;;;15.34;100.00;97965.06;1703702;75;733326;-70
2023/06/05 00:59:34;;;;;;;1.40;1.30;;;;;;;15.38;100.00;97969.56;1712071;75;673093;-68
2023/06/05 01:02:06;;;;;;;1.00;0.90;;;;;;;15.34;100.00;97969.81;1676895;75;2907176;-69
2023/06/05 01:04:36;;;;;;;1.40;1.10;;;;;;;15.30;100.00;97969.31;1700612;75;1713379;-69
2023/06/05 01:07:08;;;;;;;1.20;1.10;;;;;;;15.38;100.00;97959.28;1689223;75;1905364;-69
2023/06/05 01:09:38;;;;;;;0.95;0.90;;;;;;;15.38;100.00;97967.56;1712518;75;670971;-67
2023/06/05 01:12:14;;;;;;;0.90;0.80;;;;;;;15.40;100.00;97964.31;1677853;75;2877356;-68
2023/06/05 01:14:51;;;;;;;0.80;0.80;;;;;;;15.45;100.00;97966.31;1692546;75;1694530;-71
2023/06/05 01:17:24;;;;;;;1.45;0.90;;;;;;;15.46;100.00;97967.81;1712899;75;678181;-68
2023/06/05 01:19:55;;;;;;;1.00;0.80;;;;;;;15.44;100.00;97971.09;1702210;75;875464;-70
2023/06/05 01:22:25;;;;;;;0.70;0.60;;;;;;;15.47;100.00;97975.59;1699262;75;1829652;-70
2023/06/05 01:24:59;;;;;;;1.50;0.90;;;;;;;15.49;100.00;97969.56;1705146;75;673995;-70
2023/06/05 01:27:35;;;;;;;0.70;0.70;;;;;;;15.45;100.00;97969.81;1711973;75;678179;-68
2023/06/05 01:30:14;;;;;;;0.70;0.70;;;;;;;15.45;100.00;97972.59;1688198;75;1978160;-69
2023/06/05 01:32:53;;;;;;;2.05;1.05;;;;;;;15.33;100.00;97963.53;1709354;75;922255;-72
2023/06/05 01:35:27;;;;;;;1.60;1.10;;;;;;;15.38;100.00;97981.34;1643083;75;6520047;-69
2023/06/05 01:38:02;;;;;;;1.10;0.90;;;;;;;15.39;100.00;97973.81;1703916;75;682958;-70
2023/06/05 01:40:36;;;;;;;1.10;1.00;;;;;;;15.36;100.00;97970.06;1698406;75;1865507;-72
2023/06/05 01:43:09;;;;;;;1.70;1.50;;;;;;;15.31;100.00;97971.56;1702881;75;840508;-72
2023/06/05 01:45:43;;;;;;;1.30;1.20;;;;;;;15.39;100.00;97973.81;1710142;75;873831;-69
2023/06/05 01:48:13;;;;;;;1.50;1.20;;;;;;;15.34;100.00;97973.34;1688456;75;1961850;-70
2023/06/05 01:50:44;;;;;;;1.20;1.10;;;;;;;15.47;100.00;97974.84;1711948;75;674757;-68
2023/06/05 01:53:16;;;;;;;1.35;1.15;;;;;;;15.44;100.00;97968.34;1702694;75;787104;-68
2023/06/05 01:55:52;;;;;;;1.20;1.10;;;;;;;15.39;100.00;97962.78;1640474;75;6678352;-69
2023/06/05 01:58:24;;;;;;;2.15;1.75;;;;;;;15.40;100.00;97972.59;1703221;75;748421;-68
2023/06/05 02:00:56;;;;;;;3.10;1.20;;;;;;;15.44;100.00;97971.09;1710161;75;856346;-68
2023/06/05 02:03:27;;;;;;;1.10;0.95;;;;;;;15.41;100.00;97965.81;1703960;75;745780;-73
2023/06/05 02:05:57;;;;;;;1.30;1.20;;;;;;;15.43;100.00;97972.31;1708939;75;964443;-71
2023/06/05 02:08:28;;;;;;;1.70;1.30;;;;;;;15.41;100.00;97966.56;1699230;75;997236;-68
2023/06/05 02:11:02;;;;;;;1.20;1.10;;;;;;;15.42;100.00;97961.81;1711860;75;720272;-68
2023/06/05 02:13:33;;;;;;;1.00;0.90;;;;;;;15.33;100.00;97960.78;1688730;75;1955137;-71
2023/06/05 02:16:03;;;;;;;1.10;1.00;;;;;;;15.36;100.00;97961.78;1712498;75;673734;-70
2023/06/05 02:18:36;;;;;;;5.55;2.90;;;;;;;15.12;100.00;97965.78;1703375;75;725538;-69
2023/06/05 02:21:07;;;;;;;2.20;1.90;;;;;;;15.37;100.00;97960.56;1711981;75;732674;-68
2023/06/05 02:23:37;;;;;;;1.50;1.40;;;;;;;15.41;100.00;97958.28;1703402;75;748237;-72
2023/06/05 02:26:10;;;;;;;2.00;1.80;;;;;;;15.41;100.00;97955.53;1712111;75;720172;-69
2023/06/05 02:28:42;;;;;;;1.70;1.45;;;;;;;15.28;100.00;97958.03;1703119;75;737758;-71
2023/06/05 02:31:16;;;;;;;1.60;1.50;;;;;;;15.33;100.00;97951.75;1712316;75;710447;-72
2023/06/05 02:33:46;;;;;;;1.75;1.50;;;;;;;15.39;100.00;97949.75;1702782;75;826916;-69
2023/06/05 02:36:16;;;;;;;1.40;1.20;;;;;;;15.33;100.00;97949.75;1710985;75;862510;-69
2023/06/05 02:38:49;;;;;;;1.30;1.20;;;;;;;15.36;100.00;97938.97;1679541;75;2731012;-69
2023/06/05 02:41:23;;;;;;;1.80;1.40;;;;;;;15.36;100.00;97938.97;1687714;75;2784832;-69
2023/06/05 02:43:54;;;;;;;1.50;1.30;;;;;;;15.34;100.00;97944.97;1701495;75;918508;-69
2023/06/05 02:46:30;;;;;;;1.20;1.10;;;;;;;15.33;100.00;97941.47;1712719;75;678548;-69
2023/06/05 02:49:00;;;;;;;1.00;0.95;;;;;;;15.42;100.00;97948.75;1701880;75;818972;-68
2023/06/05 02:51:31;;;;;;;1.25;1.00;;;;;;;15.34;100.00;97948.50;1699681;75;1785585;-71
2023/06/05 02:54:01;;;;;;;1.10;1.00;;;;;;;15.33;100.00;97941.47;1703611;75;745717;-68
2023/06/05 02:56:34;;;;;;;1.05;0.80;;;;;;;15.40;100.00;97945.00;1686251;75;2918460;-68
2023/06/05 02:59:05;;;;;;;0.95;0.90;;;;;;;15.39;100.00;97940.72;1690401;75;1791954;-71
2023/06/05 03:01:35;;;;;;;1.30;1.20;;;;;;;15.30;100.00;97933.47;1712343;75;692924;-68
2023/06/05 03:04:07;;;;;;;2.00;1.30;;;;;;;15.38;100.00;97928.19;1701021;75;959666;-70
2023/06/05 03:06:37;;;;;;;1.40;1.10;;;;;;;15.39;100.00;97935.22;1641805;75;6669142;-70
2023/06/05 03:09:07;;;;;;;1.20;1.10;;;;;;;15.41;100.00;97932.69;1676716;75;2973449;-70
2023/06/05 03:11:43;;;;;;;1.30;1.10;;;;;;;15.43;100.00;97930.19;1699370;75;1795173;-68
2023/06/05 03:14:13;;;;;;;1.00;0.90;;;;;;;15.39;100.00;97924.91;1690944;75;1768657;-71
2023/06/05 03:16:45;;;;;;;1.10;1.00;;;;;;;15.39;100.00;97935.94;1712262;75;712009;-69
2023/06/05 03:19:15;;;;;;;2.10;1.00;;;;;;;15.43;100.00;97935.72;1701536;75;874394;-71
2023/06/05 03:21:47;;;;;;;2.45;1.10;;;;;;;15.39;100.00;97929.69;1711218;75;674046;-69
2023/06/05 03:24:18;;;;;;;1.70;1.40;;;;;;;15.46;100.00;97920.91;1699610;75;956841;-71
2023/06/05 03:26:51;;;;;;;1.40;1.30;;;;;;;15.50;100.00;97918.66;1629778;75;7571776;-68
2023/06/05 03:29:21;;;;;;;1.85;1.10;;;;;;;15.43;100.00;97924.69;1701264;75;757899;-72
2023/06/05 03:31:51;;;;;;;1.20;1.10;;;;;;;15.40;100.00;97929.19;1695336;75;1986221;-74
2023/06/05 03:34:22;;;;;;;3.30;1.70;;;;;;;15.21;100.00;97928.19;1701689;75;739684;-70
2023/06/05 03:36:52;;;;;;;3.60;2.90;;;;;;;15.21;100.00;97928.94;1710693;75;669178;-73
2023/06/05 03:39:22;;;;;;;2.40;2.00;;;;;;;15.29;100.00;97923.66;1698316;75;929077;-73
2023/06/05 03:41:56;;;;;;;2.45;2.00;;;;;;;15.39;100.00;97913.13;1710248;75;682085;-71
2023/06/05 03:44:26;;;;;;;1.70;1.40;;;;;;;15.45;100.00;97922.19;1702057;75;744789;-73
2023/06/05 03:46:57;;;;;;;2.20;1.60;;;;;;;15.32;100.00;97925.41;1709991;75;671439;-71
2023/06/05 03:49:28;;;;;;;1.65;1.50;;;;;;;15.40;100.00;97922.94;1701692;75;736614;-73
2023/06/05 03:52:00;;;;;;;1.70;1.60;;;;;;;15.41;100.00;97919.66;1710276;75;690514;-73
2023/06/05 03:54:33;;;;;;;5.55;3.30;;;;;;;15.21;100.00;97917.16;1702225;75;759626;-69
2023/06/05 03:57:09;;;;;;;4.80;4.10;;;;;;;15.27;100.00;97912.38;1710860;75;731662;-72
2023/06/05 03:59:39;;;;;;;5.10;2.80;;;;;;;15.45;100.00;97913.91;1701569;75;758573;-68
2023/06/05 04:02:09;;;;;;;3.60;3.25;;;;;;;15.36;100.00;97922.41;1710126;75;780727;-73
2023/06/05 04:04:40;;;;;;;3.30;2.75;;;;;;;15.44;100.00;97923.41;1701493;75;757517;-73
2023/06/05 04:07:10;;;;;;;3.00;2.40;;;;;;;15.42;100.00;97928.69;1711098;75;669094;-72
2023/06/05 04:09:40;;;;;;;4.35;2.90;;;;;;;15.39;100.00;97935.22;1676650;75;2747293;-73
2023/06/05 04:12:14;;;;;;;3.40;2.60;;;;;;;15.47;100.00;97928.69;1711423;75;679240;-70
2023/06/05 04:14:45;;;;;;;4.15;2.80;;;;;;;15.52;100.00;97935.47;1702505;75;763507;-71
2023/06/05 04:17:16;;;;;;;4.40;3.40;;;;;;;15.51;100.00;97931.19;1711576;75;678544;-73
2023/06/05 04:19:46;;;;;;;4.70;3.20;;;;;;;15.56;100.00;97933.19;1676593;75;2877727;-69
2023/06/05 04:22:17;;;;;;;2.95;2.55;;;;;;;15.58;100.00;97925.16;1712347;75;671537;-69
2023/06/05 04:24:47;;;;;;;5.90;4.95;;;;;;;15.65;100.00;97930.16;1703163;75;741663;-70
2023/06/05 04:27:20;;;;;;;3.85;3.20;;;;;;;15.72;100.00;97926.94;1708370;75;979865;-71
2023/06/05 04:29:52;;;;;;;3.15;2.55;;;;;;;15.72;100.00;97921.41;1632870;75;6574872;-69
2023/06/05 04:32:22;;;;;;;2.90;2.20;;;;;;;15.78;100.00;97921.41;1711456;75;683310;-70
2023/06/05 04:34:52;;;;;;;4.80;4.30;;;;;;;15.68;100.00;97920.91;1702421;75;748163;-72
2023/06/05 04:37:22;;;;;;;3.60;3.25;;;;;;;15.87;100.00;97914.84;1696785;75;1944490;-71
2023/06/05 04:39:53;;;;;;;4.60;3.20;;;;;;;15.95;100.00;97924.16;1699454;75;942378;-71
2023/06/05 04:42:26;;;;;;;3.35;2.40;;;;;;;16.02;100.00;97917.34;1711376;75;693508;-70
2023/06/05 04:45:03;;;;;;;2.20;2.00;;;;;;;15.93;100.00;97923.91;1700084;75;900516;-71
2023/06/05 04:47:34;;;;;;;2.60;2.00;;;;;;;15.90;100.00;97916.63;1664376;75;4003657;-71
2023/06/05 04:50:07;;;;;;;2.70;2.00;;;;;;;15.94;100.00;97911.59;1708757;75;833256;-71
2023/06/05 04:52:39;;;;;;;1.60;1.40;;;;;;;16.02;100.00;97909.81;1677315;75;2852811;-74
2023/06/05 04:55:11;;;;;;;1.50;1.40;;;;;;;16.05;100.00;97914.31;1710404;75;789055;-69
2023/06/05 04:57:44;;;;;;;1.90;1.50;;;;;;;16.11;100.00;97915.03;1677712;75;2836331;-69
2023/06/05 05:00:17;;;;;;;1.90;1.60;;;;;;;16.09;100.00;97914.03;1712041;75;670101;-71
2023/06/05 05:02:47;;;;;;;1.40;1.30;;;;;;;16.08;100.00;97909.78;1704249;75;681565;-70
2023/06/05 05:05:17;;;;;;;1.40;1.30;;;;;;;16.08;100.00;97915.31;1709334;75;965126;-74
2023/06/05 05:07:48;;;;;;;1.60;1.45;;;;;;;16.07;100.00;97911.81;1691397;67;1789218;-71
2023/06/05 05:10:19;;;;;;;1.60;1.50;;;;;;;16.07;100.00;97906.28;1712440;75;732067;-71
2023/06/05 05:12:52;;;;;;;2.00;1.70;;;;;;;16.15;100.00;97912.03;1692585;75;1728843;-69
2023/06/05 05:15:22;;;;;;;2.00;1.70;;;;;;;16.14;100.00;97916.06;1709049;75;981093;-71
2023/06/05 05:17:53;;;;;;;3.00;2.00;;;;;;;16.07;100.00;97916.59;1702173;75;750400;-72
2023/06/05 05:20:23;;;;;;;2.20;1.80;;;;;;;16.10;100.00;97910.78;1684640;75;2935471;-68
2023/06/05 05:22:55;;;;;;;3.10;2.00;;;;;;;16.09;100.00;97919.56;1700118;75;987549;-74
2023/06/05 05:25:26;;;;;;;2.20;1.80;;;;;;;16.13;100.00;97920.81;1711039;75;720993;-73
2023/06/05 05:27:59;;;;;;;2.40;1.50;;;;;;;16.12;100.00;97918.56;1702557;75;729830;-67
2023/06/05 05:30:29;;;;;;;2.40;1.70;;;;;;;16.16;100.00;97913.53;1709014;75;888788;-73
2023/06/05 05:32:59;;;;;;;1.90;1.50;;;;;;;16.12;100.00;97924.84;1702554;75;743538;-73
2023/06/05 05:35:30;;;;;;;1.90;1.60;;;;;;;16.14;100.00;97916.06;1695891;75;1987117;-70
2023/06/05 05:38:02;;;;;;;2.40;1.90;;;;;;;16.13;100.00;97918.06;1687459;75;1924531;-72
2023/06/05 05:40:32;;;;;;;2.30;2.10;;;;;;;16.23;100.00;97915.00;1711427;75;679292;-70
2023/06/05 05:43:05;;;;;;;2.35;2.00;;;;;;;16.28;100.00;97917.00;1633113;75;6570396;-70
2023/06/05 05:45:38;;;;;;;2.10;1.80;;;;;;;16.37;100.00;97913.94;1710343;75;775922;-71
2023/06/05 05:48:08;;;;;;;2.65;1.80;;;;;;;16.40;100.00;97921.22;1702703;75;766130;-70
2023/06/05 05:50:38;;;;;;;2.15;1.80;;;;;;;16.45;100.00;97914.16;1711682;75;671576;-69
2023/06/05 05:53:08;;;;;;;2.70;2.00;;;;;;;16.43;100.00;97919.44;1702286;75;782094;-69
2023/06/05 05:55:39;;;;;;;2.20;2.00;;;;;;;16.36;100.00;97921.50;1710875;75;817726;-70
2023/06/05 05:58:12;;;;;;;3.15;2.35;;;;;;;16.49;100.00;97920.94;1702601;75;757323;-71
2023/06/05 06:00:42;;;;;;;2.85;2.20;;;;;;;16.37;100.00;97917.47;1710626;75;822647;-73
2023/06/05 06:03:13;;;;;;;2.85;2.20;;;;;;;16.54;100.00;97914.63;1703367;75;743152;-69
2023/06/05 06:05:44;;;;;;;2.45;2.05;;;;;;;16.56;100.00;97912.09;1712128;75;676366;-71
2023/06/05 06:08:16;;;;;;;2.30;2.00;;;;;;;16.52;100.00;97916.38;1700755;75;877575;-69
2023/06/05 06:10:48;;;;;;;3.40;1.70;;;;;;;16.53;100.00;97917.91;1685605;75;2870943;-69
2023/06/05 06:13:21;;;;;;;2.10;1.80;;;;;;;16.59;100.00;97919.38;1703663;75;745549;-71
2023/06/05 06:15:51;;;;;;;2.70;2.05;;;;;;;16.58;100.00;97925.41;1712236;75;676967;-68
2023/06/05 06:18:21;;;;;;;2.20;1.80;;;;;;;16.74;100.00;97919.06;1702571;75;755538;-74
2023/06/05 06:20:52;;;;;;;1.90;1.70;;;;;;;16.79;100.00;97928.63;1710798;75;808708;-71
2023/06/05 06:23:22;;;;;;;2.40;1.90;;;;;;;16.60;100.00;97926.41;1703250;75;746639;-71
2023/06/05 06:25:53;;;;;;;3.10;2.20;;;;;;;16.71;100.00;97919.31;1712037;75;673059;-73
2023/06/05 06:28:27;;;;;;;2.05;1.85;;;;;;;16.87;100.00;97924.03;1703049;75;751966;-70
2023/06/05 06:30:57;;;;;;;2.25;1.80;;;;;;;16.88;100.00;97924.78;1712105;75;674236;-68
2023/06/05 06:33:29;;;;;;;1.70;1.40;;;;;;;17.01;100.00;97930.47;1703424;75;765107;-73
2023/06/05 06:36:00;;;;;;;1.70;1.50;;;;;;;17.03;100.00;97925.94;1711388;75;688595;-75
2023/06/05 06:38:31;;;;;;;2.20;1.60;;;;;;;16.92;100.00;97931.53;1688235;75;1899961;-69
2023/06/05 06:41:02;;;;;;;1.70;1.60;;;;;;;16.81;100.00;97920.53;1711884;75;705079;-74
2023/06/05 06:43:35;;;;;;;2.05;1.55;;;;;;;17.00;100.00;97917.91;1677547;75;2837134;-72
2023/06/05 06:46:06;;;;;;;1.70;1.50;;;;;;;17.02;100.00;97923.69;1712230;75;722336;-73
2023/06/05 06:48:37;;;;;;;1.90;1.65;;;;;;;17.10;100.00;97923.88;1690531;75;1719324;-73
2023/06/05 06:51:07;;;;;;;2.50;1.70;;;;;;;17.13;100.00;97923.63;1710650;75;821777;-72
2023/06/05 06:53:37;;;;;;;2.50;1.50;;;;;;;17.08;100.00;97923.63;1691160;75;1735752;-69
2023/06/05 06:56:09;;;;;;;2.10;1.60;;;;;;;17.07;100.00;97930.44;1699868;75;1764796;-69
2023/06/05 06:58:42;;;;;;;1.90;1.60;;;;;;;17.07;100.00;97928.41;1699480;75;973824;-69
2023/06/05 07:01:13;;;;;;;2.55;2.10;;;;;;;17.02;100.00;97935.50;1711762;75;672317;-71
2023/06/05 07:03:44;;;;;;;2.40;1.80;;;;;;;17.04;100.00;97929.44;1688865;75;1907981;-68
2023/06/05 07:06:15;;;;;;;2.00;1.80;;;;;;;17.08;100.00;97934.69;1711990;75;706617;-70
2023/06/05 07:08:45;;;;;;;1.55;1.45;;;;;;;17.09;100.00;97936.22;1607466;75;8671605;-69
2023/06/05 07:11:15;;;;;;;4.40;2.60;;;;;;;16.72;100.00;97929.88;1709869;75;855733;-70
2023/06/05 07:13:48;;;;;;;4.20;2.55;;;;;;;16.82;100.00;97935.88;1702507;75;767886;-69
2023/06/05 07:16:18;;;;;;;4.60;1.90;;;;;;;16.79;100.00;97932.13;1700067;75;1714633;-71
2023/06/05 07:18:51;;;;;;;2.60;2.30;;;;;;;16.84;100.00;97938.88;1699850;75;980112;-70
2023/06/05 07:21:21;;;;;;;3.10;2.00;;;;;;;16.77;100.00;97937.38;1712596;75;713799;-71
2023/06/05 07:23:53;;;;;;;2.90;2.40;;;;;;;16.66;100.00;97942.22;1691549;75;1705215;-69
2023/06/05 07:26:24;;;;;;;3.60;2.70;;;;;;;16.64;100.00;97930.91;1700463;75;1742830;-69
2023/06/05 07:28:57;;;;;;;4.70;2.60;;;;;;;16.53;100.00;97940.03;1703239;75;745130;-71
2023/06/05 07:31:29;;;;;;;3.30;2.30;;;;;;;16.73;100.00;97947.19;1712470;75;686058;-69
2023/06/05 07:33:59;;;;;;;3.00;2.05;;;;;;;16.57;100.00;97944.03;1692165;75;1699501;-74
2023/06/05 07:36:30;;;;;;;2.45;2.00;;;;;;;16.63;100.00;97948.78;1713123;75;685951;-71
2023/06/05 07:39:01;;;;;;;2.65;2.10;;;;;;;16.54;100.00;97949.81;1703464;75;742383;-70
2023/06/05 07:41:31;;;;;;;2.70;2.10;;;;;;;16.48;100.00;97946.31;1712305;75;688194;-68
2023/06/05 07:44:04;;;;;;;3.30;2.00;;;;;;;16.52;100.00;97942.00;1678185;75;2866760;-68
2023/06/05 07:46:34;;;;;;;1.60;1.50;;;;;;;16.49;100.00;97939.53;1628165;75;7813209;-71
2023/06/05 07:49:04;;;;;;;6.10;2.60;;;;;;;16.32;100.00;97943.09;1691906;75;1700625;-73
2023/06/05 07:51:36;;;;;;;3.10;2.65;;;;;;;16.28;100.00;97942.59;1700131;75;1737924;-69
2023/06/05 07:54:08;;;;;;;2.45;2.20;;;;;;;16.30;100.00;97948.38;1703507;75;749806;-70
2023/06/05 07:56:39;;;;;;;2.75;2.30;;;;;;;16.28;100.00;97944.63;1712607;75;688026;-69
2023/06/05 07:59:14;;;;;;;3.00;2.10;;;;;;;16.38;100.00;97943.09;1703271;75;751737;-69
2023/06/05 08:01:45;;;;;;;2.15;1.80;;;;;;;16.22;100.00;97936.38;1697946;75;1955028;-70
2023/06/05 08:04:15;;;;;;;1.85;1.60;;;;;;;16.26;100.00;97944.38;1703703;75;748534;-70
2023/06/05 08:06:46;;;;;;;2.30;2.10;;;;;;;16.26;100.00;97936.84;1700010;75;1778166;-70
2023/06/05 08:09:16;;;;;;;2.60;1.60;;;;;;;16.09;100.00;97933.38;1700914;75;935216;-70
2023/06/05 08:11:46;;;;;;;2.30;2.05;;;;;;;16.12;100.00;97941.41;1687453;75;2814979;-68
2023/06/05 08:14:19;;;;;;;2.00;1.80;;;;;;;16.07;100.00;97939.44;1701636;75;859617;-71
2023/06/05 08:16:50;;;;;;;2.10;1.90;;;;;;;16.10;100.00;97940.41;1712137;75;678117;-69
2023/06/05 08:19:20;;;;;;;2.05;1.70;;;;;;;16.15;100.00;97943.16;1703826;75;747692;-70
2023/06/05 08:21:54;;;;;;;1.60;1.50;;;;;;;16.10;100.00;97948.72;1709474;75;768602;-69
2023/06/05 08:24:26;;;;;;;5.75;3.05;;;;;;;15.76;100.00;97955.03;1701725;75;748793;-75
2023/06/05 08:26:59;;;;;;;3.80;3.10;;;;;;;15.74;100.00;97957.53;1710563;75;668943;-71
2023/06/05 08:29:36;;;;;;;5.45;3.40;;;;;;;15.47;100.00;97963.81;1700393;75;749762;-66
2023/06/05 08:32:07;;;;;;;3.60;2.60;;;;;;;15.55;100.00;97954.50;1700545;75;680102;-68
2023/06/05 08:34:38;;;;;;;3.10;2.30;;;;;;;15.73;100.00;97964.34;1710225;75;677077;-68
2023/06/05 08:37:08;;;;;;;2.30;2.00;;;;;;;15.76;100.00;97955.03;1701928;75;690925;-68
2023/06/05 08:39:38;;;;;;;2.20;1.70;;;;;;;15.74;100.00;97957.53;1709359;75;686047;-67
2023/06/05 08:42:10;;;;;;;1.50;1.40;;;;;;;15.81;100.00;97956.28;1702290;75;675069;-68
2023/06/05 08:44:43;;;;;;;1.70;1.50;;;;;;;15.77;100.00;97953.78;1636795;75;6828496;-68
2023/06/05 08:47:15;;;;;;;1.50;1.25;;;;;;;15.83;100.00;97964.06;1689697;75;1763870;-65
2023/06/05 08:49:47;;;;;;;1.50;1.40;;;;;;;15.92;100.00;97966.56;1710014;75;668848;-70
2023/06/05 08:52:17;;;;;;;1.30;1.20;;;;;;;15.99;100.00;97963.28;1701077;75;814200;-68
2023/06/05 08:54:48;;;;;;;1.90;1.80;;;;;;;15.86;100.00;97958.28;1710429;75;681560;-71
2023/06/05 08:57:18;;;;;;;6.40;3.75;;;;;;;15.49;100.00;97955.75;1701860;75;673682;-68
2023/06/05 08:59:54;;;;;;;4.20;3.30;;;;;;;15.65;100.00;97955.00;1709662;75;687588;-76
2023/06/05 09:02:24;;;;;;;5.00;4.50;;;;;;;15.28;100.00;97961.53;1701946;75;698782;-73
2023/06/05 09:04:57;;;;;;;4.50;3.90;;;;;;;15.50;100.00;97954.53;1710301;75;733179;-68
2023/06/05 09:07:28;;;;;;;5.10;3.60;;;;;;;15.46;100.00;97954.75;1699337;75;954880;-71
2023/06/05 09:09:58;;;;;;;4.40;4.00;;;;;;;15.50;100.00;97952.50;1697581;75;1719229;-68
2023/06/05 09:12:28;;;;;;;4.50;3.40;;;;;;;15.77;100.00;97953.78;1701820;75;676070;-67
2023/06/05 09:15:01;;;;;;;5.10;4.35;;;;;;;15.84;100.00;97962.81;1707782;75;919526;-71
2023/06/05 09:17:31;;;;;;;3.95;3.30;;;;;;;15.98;100.00;97957.00;1701461;75;739829;-70
2023/06/05 09:20:04;;;;;;;4.15;2.90;;;;;;;16.11;100.00;97947.44;1707240;75;888409;-69
2023/06/05 09:22:39;;;;;;;2.45;2.10;;;;;;;16.35;100.00;97949.63;1701833;75;734450;-73
2023/06/05 09:25:11;;;;;;;2.50;2.30;;;;;;;16.47;100.00;97948.31;1707475;75;790607;-73
2023/06/05 09:27:43;;;;;;;2.40;1.80;;;;;;;16.72;100.00;97948.47;1710476;75;681552;-74
2023/06/05 09:30:17;;;;;;;1.70;1.60;;;;;;;16.78;100.00;97951.94;1703165;75;696915;-68
2023/06/05 09:32:48;;;;;;;2.00;1.80;;;;;;;16.73;100.00;97959.00;1711722;75;669883;-69
2023/06/05 09:35:19;;;;;;;;;;;;;;;16.79;100.00;97957.00;1663159;75;2990133;-67
2023/06/05 09:37:50;;;;;;;1.70;1.40;;;;;;;16.81;100.00;97951.72;1710842;75;677359;-72
2023/06/05 09:40:20;;;;;;;1.30;1.20;;;;;;;16.84;100.00;97955.47;1702241;75;676514;-72
2023/06/05 09:42:50;;;;;;;1.50;1.40;;;;;;;16.82;100.00;97950.44;1710199;75;674063;-69
2023/06/05 09:45:23;;;;;;;1.40;1.30;;;;;;;16.72;100.00;97957.50;1702394;75;682939;-69
2023/06/05 09:47:53;;;;;;;1.40;1.10;;;;;;;16.82;100.00;97955.22;1709552;75;756563;-70
2023/06/05 09:50:29;;;;;;;1.20;1.10;;;;;;;16.74;100.00;97957.75;1702448;75;680228;-68
2023/06/05 09:53:02;;;;;;;1.00;1.00;;;;;;;16.83;100.00;97962.25;1709970;75;684222;-69
2023/06/05 09:55:32;;;;;;;1.35;1.20;;;;;;;16.91;100.00;97962.47;1701841;75;681569;-70
2023/06/05 09:58:10;;;;;;;1.60;1.20;;;;;;;16.86;100.00;97957.72;1707213;75;933539;-70
2023/06/05 10:00:44;;;;;;;1.50;1.20;;;;;;;16.93;100.00;97959.94;1701371;75;755137;-70
2023/06/05 10:03:20;;;;;;;2.20;1.10;;;;;;;16.98;100.00;97951.63;1709884;75;673496;-67
2023/06/05 10:05:52;;;;;;;2.15;1.30;;;;;;;17.07;100.00;97947.03;1700635;75;800841;-69
2023/06/05 10:08:23;;;;;;;1.30;1.20;;;;;;;17.04;100.00;97954.34;1671824;75;3913481;-71
2023/06/05 10:10:53;;;;;;;1.40;1.30;;;;;;;17.10;100.00;97944.00;1701563;75;743913;-77
2023/06/05 10:13:24;;;;;;;1.75;1.40;;;;;;;17.08;100.00;97948.53;1697777;75;1723649;-69
2023/06/05 10:15:58;;;;;;;1.55;1.45;;;;;;;16.97;100.00;97947.34;1702311;75;725518;-71
2023/06/05 10:18:28;;;;;;;1.90;1.60;;;;;;;17.10;100.00;97951.53;1709852;75;689548;-70
2023/06/05 10:21:00;;;;;;;1.40;1.30;;;;;;;17.06;100.00;97951.81;1686471;75;1950210;-70
2023/06/05 10:23:31;;;;;;;2.25;1.65;;;;;;;17.06;100.00;97942.78;1710173;75;677331;-73
2023/06/05 10:26:05;;;;;;;2.05;1.35;;;;;;;17.10;100.00;97952.31;1700129;75;791351;-74
2023/06/05 10:28:49;;;;;;;1.30;1.20;;;;;;;17.24;100.00;97948.44;1671740;75;3903596;-69
2023/06/05 10:31:43;;;;;;;1.20;1.10;;;;;;;17.26;100.00;97945.13;1698647;75;925048;-71
2023/06/05 10:34:37;;;;;;;1.20;1.10;;;;;;;17.39;100.00;97952.84;1702129;75;676581;-70
2023/06/05 10:37:50;;;;;;;1.50;1.00;;;;;;;17.22;100.00;97956.50;1702227;75;730755;-68
2023/06/05 10:40:21;;;;;;;1.70;1.50;;;;;;;17.11;100.00;97951.03;1699537;75;871027;-70
2023/06/05 10:42:53;;;;;;;1.20;1.10;;;;;;;17.10;100.00;97952.31;1708363;75;880236;-71
2023/06/05 10:45:36;;;;;;;1.45;1.20;;;;;;;17.19;100.00;97945.69;1701323;75;750619;-70
2023/06/05 10:48:09;;;;;;;1.20;1.10;;;;;;;17.18;100.00;97958.03;1701441;75;709063;-70
2023/06/05 10:50:39;;;;;;;1.20;1.10;;;;;;;17.12;100.00;97963.59;1710153;75;673437;-67
2023/06/05 10:53:10;;;;;;;1.55;1.20;;;;;;;17.13;100.00;97959.56;1690746;75;1721318;-68
2023/06/05 10:55:46;;;;;;;1.20;1.10;;;;;;;17.17;100.00;97964.81;1709687;75;833670;-69
2023/06/05 10:58:17;;;;;;;1.40;1.20;;;;;;;17.21;100.00;97960.50;1702836;75;673948;-72
2023/06/05 11:01:22;;;;;;;1.10;1.00;;;;;;;17.23;100.00;97963.53;1709674;75;786167;-70
2023/06/05 11:04:02;;;;;;;1.75;1.55;;;;;;;17.12;100.00;97957.31;1688960;75;1785376;-73
2023/06/05 11:06:33;;;;;;;1.80;1.60;;;;;;;17.00;100.00;97962.16;1703073;75;678411;-74
2023/06/05 11:09:15;;;;;;;1.90;1.70;;;;;;;16.96;100.00;97976.28;1708638;75;807483;-72
2023/06/05 11:12:09;;;;;;;1.55;1.45;;;;;;;17.02;100.00;97973.47;1702170;75;699505;-71
2023/06/05 11:14:50;;;;;;;1.30;1.20;;;;;;;17.11;100.00;97975.94;1699243;75;914760;-69
2023/06/05 11:17:31;;;;;;;2.25;1.90;;;;;;;16.80;100.00;97983.38;1707738;75;953571;-71
2023/06/05 11:20:09;;;;;;;2.90;2.10;;;;;;;16.74;100.00;97971.59;1700121;75;792801;-72
2023/06/05 11:23:11;;;;;;;2.70;1.80;;;;;;;17.00;100.00;97967.69;1677180;75;2842752;-70
2023/06/05 11:25:42;;;;;;;1.30;1.20;;;;;;;16.98;100.00;97982.03;1703222;75;680429;-69
2023/06/05 11:28:12;;;;;;;2.80;1.80;;;;;;;16.83;100.00;97976.81;1710503;75;679457;-71
2023/06/05 11:30:45;;;;;;;1.70;1.50;;;;;;;16.93;100.00;97980.06;1689791;75;1783648;-68
2023/06/05 11:33:16;;;;;;;2.20;1.50;;;;;;;17.06;100.00;97976.72;1697702;75;1809340;-73
2023/06/05 11:35:52;;;;;;;3.85;2.40;;;;;;;16.94;100.00;97976.03;1702319;75;693322;-73
2023/06/05 11:38:24;;;;;;;1.80;1.60;;;;;;;17.13;100.00;97976.16;1708928;75;816669;-73